Weather at Bully Field [CLOSED]

Public forecast

Using degrees Fahrenheit for public forecast. Weather courtesy of forecast.io.

Closest aviation weather report (METAR) to Bully Field

Closest report is Burlington Alamance Regional Airport, 7.3 nm (13.5 km) SSW. Retrieved 2020/09/22 22:54 UTC (21 minutes ago):

KBUY 222254Z AUTO 00000KT 10SM CLR 17/09 A3010 RMK AO2 SLP191 T01720094

Closest aviation forecast (TAF) to Bully Field

Closest forecast is Danville Regional Airport, 25.4 nm (47.0 km) N. Retrieved 2020/09/22 18:24 UTC (5 hours ago):

TAF KDAN 221722Z 2218/2318 VRB03KT P6SM SKC FM231500 29005KT P6SM SKC